• Join FlightAware (Why Join?)
  • Login
  • US Flag 
03:59PM EDT


 

Airport Tracker/Info


-or-


 

Live Flight TrackerFlight Track Log ✈ SWA539 ✈ 09-Apr-2013 ✈ KMCI - KLAX

Flight Track Log - Related Links

Times and Time Zones

All times are in EDT time to prevent confusion due to time zone crossing. See the SWA539 flight status page for this flight to view local times or setup timezone preferences in your user account.

Time Position Orientation Groundspeed Altitude Reporting Facility
EDT Latitude Longitude Course Direction KTS MPH feet Rate Location/Type
06:39PM 39.2833 -94.7333 218° Southwest 158 182 1,800  Level Kansas City TRACON
06:40PM 39.2167 -94.8000 218° Southwest 217 250 5,900 2,400 Climbing Kansas City TRACON
06:41PM 39.2186 -94.7961 57° Northeast 204 235 6,100 2,220 Climbing Kansas City Center
06:42PM 39.1767 -94.8614 230° Southwest 224 258 8,900 2,220 Climbing Kansas City Center
06:43PM 39.1439 -94.9431 243° Southwest 267 307 10,800 1,800 Climbing Kansas City Center
06:44PM 39.0878 -95.0500 236° Southwest 327 376 12,700 2,340 Climbing Kansas City Center
06:45PM 39.0350 -95.1536 237° Southwest 345 397 15,600 2,400 Climbing Kansas City Center
06:46PM 38.9856 -95.2511 237° Southwest 348 400 17,800 2,340 Climbing Kansas City Center
06:47PM 38.9222 -95.3728 236° Southwest 363 418 20,500 2,220 Climbing Kansas City Center
06:48PM 38.8669 -95.4789 236° Southwest 372 428 22,400 1,860 Climbing Kansas City Center
06:49PM 38.8017 -95.6067 237° Southwest 382 440 24,400 1,800 Climbing Kansas City Center
06:50PM 38.7564 -95.7258 244° Southwest 386 444 26,100 1,440 Climbing Kansas City Center
06:51PM 38.7353 -95.8614 259° West 404 465 27,500 1,320 Climbing Kansas City Center
06:52PM 38.7125 -96.0200 260° West 404 465 28,900 1,380 Climbing Kansas City Center
06:53PM 38.6933 -96.1597 260° West 411 473 30,400 1,380 Climbing Kansas City Center
06:54PM 38.6694 -96.3164 259° West 404 465 31,800 1,260 Climbing Kansas City Center
06:55PM 38.6489 -96.4503 259° West 401 461 33,100 1,140 Climbing Kansas City Center
06:56PM 38.6439 -96.6119 268° West 409 471 34,200 1,020 Climbing Kansas City Center
06:57PM 38.6419 -96.7514 269° West 409 471 35,200 840 Climbing Kansas City Center
06:58PM 38.6386 -96.9128 269° West 410 472 36,000 360 Climbing Kansas City Center
06:59PM 38.6522 -97.0564 277° West 414 476 36,000  Level Kansas City Center
07:00PM 38.6811 -97.1983 285° West 415 478 36,000  Level Kansas City Center
07:01PM 38.7117 -97.3381 286° West 411 473 36,000  Level Kansas City Center
07:02PM 38.7144 -97.5044 271° West 400 460 36,000  Level Kansas City Center
07:04PM 38.6648 -97.6463 246° West  Level FlightAware Approximate
07:04PM 38.7081 -97.7828 246° West 408 470 36,000  Level Kansas City Center
07:06PM 38.6997 -97.9425 266° West 413 475 36,000  Level Kansas City Center
07:07PM 38.6814 -98.0800 260° West 396 456 36,000  Level Kansas City Center
07:08PM 38.6639 -98.2172 261° West 393 452 36,000  Level Kansas City Center
07:09PM 38.6461 -98.3533 261° West 392 451 36,000  Level Kansas City Center
07:10PM 38.6258 -98.5178 261° West 393 452 36,000  Level Kansas City Center
07:11PM 38.6081 -98.6575 261° West 399 459 36,000  Level Kansas City Center
07:12PM 38.5886 -98.7978 260° West 403 464 36,000  Level Kansas City Center
07:13PM 38.5697 -98.9361 260° West 399 459 36,000  Level Kansas City Center
07:14PM 38.5522 -99.0736 261° West 396 456 36,000  Level Kansas City Center
07:15PM 38.5331 -99.2103 260° West 393 452 36,000  Level Kansas City Center
07:16PM 38.5111 -99.3733 260° West 390 449 36,000  Level Kansas City Center
07:17PM 38.4922 -99.5075 260° West 386 444 36,000  Level Kansas City Center
07:18PM 38.4731 -99.6547 261° West 385 443 36,000  Level Kansas City Center
07:19PM 38.4539 -99.7803 259° West 380 437 36,000  Level Kansas City Center
07:20PM 38.4336 -99.9278 260° West 379 436 36,000  Level Kansas City Center
07:21PM 38.4217 -100.0103 260° West 379 436 36,000  Level Denver Center
07:22PM 38.4025 -100.1358 259° West 377 434 36,000  Level Denver Center
07:23PM 38.3819 -100.2825 260° West 378 435 36,000  Level Denver Center
07:24PM 38.3639 -100.4061 259° West 373 429 36,000  Level Denver Center
07:24PM 38.3578 -100.4483 260° West 374 430 36,000  Level Kansas City Center
07:25PM 38.3361 -100.5942 259° West 375 432 36,000  Level Kansas City Center
07:26PM 38.3239 -100.6767 259° West 377 434 36,000  Level Denver Center
07:27PM 38.3044 -100.8011 259° West 378 435 36,000  Level Denver Center
07:28PM 38.2828 -100.9464 259° West 376 433 36,000  Level Denver Center
07:29PM 38.2639 -101.0722 259° West 380 437 36,000  Level Denver Center
07:30PM 38.2406 -101.2178 259° West 378 435 36,000  Level Denver Center
07:31PM 38.2222 -101.3403 259° West 371 427 36,000  Level Denver Center
07:32PM 38.2000 -101.4864 259° West 377 434 36,000  Level Denver Center
07:33PM 38.1803 -101.6100 259° West 375 432 36,000  Level Denver Center
07:34PM 38.1614 -101.7325 259° West 373 429 36,000  Level Denver Center
07:35PM 38.1381 -101.8747 258° West 369 425 36,000  Level Denver Center
07:36PM 38.1222 -101.9781 259° West 372 428 36,000  Level Denver Center
07:37PM 38.1014 -102.1058 258° West 381 438 36,000  Level Denver Center
07:38PM 38.0692 -102.3042 258° West 398 458 36,000  Level Denver Center
07:39PM 38.0433 -102.4608 258° West 405 466 36,000  Level Denver Center
07:40PM 38.0197 -102.5961 258° West 410 472 36,000  Level Denver Center
07:41PM 37.9922 -102.7600 258° West 420 483 36,000  Level Denver Center
07:42PM 37.9686 -102.9003 258° West 426 490 36,000  Level Denver Center
07:43PM 37.9456 -103.0406 258° West 427 491 36,000  Level Denver Center
07:44PM 37.9164 -103.2053 257° West 429 494 36,000  Level Denver Center
07:45PM 37.8917 -103.3472 258° West 431 496 36,000  Level Denver Center
07:46PM 37.8636 -103.5125 258° West 432 497 36,000  Level Denver Center
07:47PM 37.8383 -103.6539 257° West 431 496 36,000  Level Denver Center
07:48PM 37.8131 -103.7947 257° West 431 496 36,000  Level Denver Center
07:50PM 37.7844 -103.9589 258° West 432 497 36,000  Level Denver Center
07:51PM 37.7589 -104.0975 257° West 429 494 36,000  Level Denver Center
07:52PM 37.7297 -104.2567 257° West 423 487 36,000  Level Denver Center
07:53PM 37.7050 -104.3944 257° West 423 487 36,000  Level Denver Center
07:54PM 37.6756 -104.5575 257° West 427 491 36,000  Level Denver Center
07:55PM 37.6497 -104.6978 257° West 430 495 36,000  Level Denver Center
07:56PM 37.6192 -104.8625 257° West 432 497 36,000  Level Denver Center
07:57PM 37.5917 -105.0053 256° West 436 502 36,000  Level Denver Center
07:58PM 37.5600 -105.1697 256° West 431 496 36,000  Level Denver Center
07:59PM 37.5339 -105.3036 256° West 438 504 36,000  Level Denver Center
08:00PM 37.5022 -105.4689 256° West 436 502 36,000  Level Denver Center
08:01PM 37.4753 -105.6078 256° West 428 493 36,000  Level Denver Center
08:02PM 37.4417 -105.7683 255° West 428 493 36,000  Level Denver Center
08:03PM 37.4153 -105.9083 257° West 431 496 36,000  Level Denver Center
08:04PM 37.3867 -106.0481 256° West 432 497 36,000  Level Denver Center
08:05PM 37.3531 -106.2156 256° West 441 507 36,000  Level Denver Center
08:06PM 37.3242 -106.3594 256° West 444 511 36,000  Level Denver Center
08:07PM 37.2906 -106.5294 256° West 450 518 36,000  Level Denver Center
08:08PM 37.2608 -106.6733 255° West 447 514 36,000  Level Denver Center
08:09PM 37.2428 -106.8469 263° West 456 525 36,000  Level Denver Center
08:10PM 37.2792 -106.9925 287° West 458 527 36,000 180 Level Denver Center
08:11PM 37.3544 -107.1431 302° West 458 527 36,400 420 Climbing Denver Center
08:12PM 37.4181 -107.2722 302° West 456 525 36,900 480 Climbing Denver Center
08:13PM 37.4850 -107.4022 303° West 459 528 37,500 480 Climbing Denver Center
08:14PM 37.5622 -107.5531 303° West 462 532 38,000 240 Climbing Denver Center
08:15PM 37.6136 -107.6886 296° West 456 525 38,000  Level Denver Center
08:16PM 37.5781 -107.8614 255° West 457 526 38,000  Level Denver Center
08:17PM 37.5342 -108.0033 249° West 456 525 38,000  Level Denver Center
08:18PM 37.4822 -108.1694 249° West 457 526 38,000  Level Denver Center
08:19PM 37.4378 -108.3114 249° West 458 527 38,000  Level Denver Center
08:20PM 37.3847 -108.4761 248° West 456 525 38,000  Level Denver Center
08:21PM 37.3403 -108.6167 248° West 456 525 38,000  Level Denver Center
08:22PM 37.2869 -108.7833 248° West 460 529 38,000  Level Denver Center
08:23PM 37.2417 -108.9239 248° West 458 527 38,000  Level Denver Center
08:24PM 37.1953 -109.0642 247° West 457 526 38,000  Level Denver Center
08:25PM 37.1419 -109.2289 248° West 457 526 38,000  Level Denver Center
08:26PM 37.0969 -109.3683 248° West 455 524 38,000  Level Denver Center
08:28PM 37.0425 -109.5294 247° West 452 520 38,000  Level Denver Center
08:29PM 36.9972 -109.6658 247° West 447 514 38,000  Level Denver Center
08:30PM 36.9436 -109.8275 248° West 451 519 38,000  Level Denver Center
08:31PM 36.8981 -109.9658 248° West 451 519 38,000  Level Denver Center
08:32PM 36.8442 -110.1269 247° West 451 519 38,000  Level Denver Center
08:33PM 36.7975 -110.2653 247° West 454 522 38,000  Level Denver Center
08:34PM 36.7481 -110.4111 247° West 455 524 38,000  Level Denver Center
08:35PM 36.6975 -110.5586 247° West 460 529 38,000  Level Denver Center
08:36PM 36.6481 -110.7036 247° West 457 526 38,000  Level Denver Center
08:37PM 36.5917 -110.8772 248° West 452 520 38,000  Level Denver Center
08:38PM 36.5286 -111.0519 246° West 458 527 38,000  Level Denver Center
08:39PM 36.4778 -111.1975 247° West 459 528 38,000  Level Denver Center
08:40PM 36.4264 -111.3436 246° West 459 528 38,000  Level Denver Center
08:41PM 36.3753 -111.4897 247° West 461 531 38,000  Level Denver Center
08:42PM 36.3331 -111.6050 246° West 460 529 38,000  Level Denver Center
08:43PM 36.2719 -111.7797 247° West 460 529 38,000  Level Denver Center
08:44PM 36.2189 -111.9258 246° West 463 533 38,000  Level Denver Center
08:45PM 36.1575 -112.1008 247° West 463 533 38,000  Level Denver Center
08:46PM 36.1047 -112.2439 245° Southwest 459 528 38,000  Level Denver Center
08:47PM 36.0514 -112.3883 245° Southwest 461 531 38,000  Level Denver Center
08:48PM 35.9983 -112.5356 246° West 461 531 38,000  Level Los Angeles Center
08:49PM 35.9406 -112.6922 246° West 460 529 38,000  Level Los Angeles Center
08:50PM 35.8883 -112.8358 246° West 463 533 38,000  Level Los Angeles Center
08:51PM 35.8344 -112.9819 246° West 469 540 38,000  Level Los Angeles Center
08:52PM 35.7800 -113.1267 245° Southwest 471 542 38,000  Level Los Angeles Center
08:53PM 35.7261 -113.2722 246° West 472 543 38,000  Level Los Angeles Center
08:55PM 35.6619 -113.4439 245° Southwest 467 537 38,000  Level Los Angeles Center
08:56PM 35.6083 -113.5858 245° Southwest 463 533 38,000  Level Los Angeles Center
08:57PM 35.5514 -113.7261 244° Southwest 464 534 38,000  Level Los Angeles Center
08:58PM 35.4919 -113.8672 243° Southwest 466 536 38,000  Level Los Angeles Center
08:59PM 35.4311 -114.0203 244° Southwest 465 535 38,000  Level Los Angeles Center
09:00PM 35.3728 -114.1636 244° Southwest 466 536 38,000  Level Los Angeles Center
09:01PM 35.3136 -114.3089 244° Southwest 473 544 38,000  Level Los Angeles Center
09:02PM 35.2422 -114.4814 243° Southwest 473 544 38,000  Level Los Angeles Center
09:03PM 35.1814 -114.6258 243° Southwest 476 548 38,000  Level Los Angeles Center
09:04PM 35.1217 -114.7697 243° Southwest 476 548 38,000  Level Los Angeles Center
09:05PM 35.0603 -114.9144 243° Southwest 477 549 38,000  Level Los Angeles Center
09:06PM 35.0017 -115.0561 243° Southwest 469 540 38,000  Level Los Angeles Center
09:07PM 34.9414 -115.1992 243° Southwest 471 542 38,000  Level Los Angeles Center
09:08PM 34.8808 -115.3408 243° Southwest 471 542 38,000  Level Los Angeles Center
09:09PM 34.8194 -115.4847 243° Southwest 475 547 38,000  Level Los Angeles Center
09:10PM 34.7561 -115.6331 243° Southwest 477 549 38,000  Level Los Angeles Center
09:11PM 34.6942 -115.7744 242° Southwest 475 547 38,000 -900 Level Los Angeles Center
09:12PM 34.6247 -115.9372 243° Southwest 455 524 36,200 -1,380 Descending Los Angeles Center
09:13PM 34.5642 -116.0797 243° Southwest 466 536 35,200 -1,140 Descending Los Angeles Center
09:14PM 34.5006 -116.2217 241° Southwest 477 549 33,900 -1,980 Descending Los Angeles Center
09:15PM 34.4428 -116.3542 242° Southwest 452 520 31,200 -2,460 Descending Los Angeles Center
09:16PM 34.3811 -116.4958 242° Southwest 472 543 28,900 -2,280 Descending Los Angeles Center
09:17PM 34.3178 -116.6364 241° Southwest 474 545 26,500 -2,280 Descending Los Angeles Center
09:18PM 34.2575 -116.7728 242° Southwest 460 529 24,300 -2,040 Descending Los Angeles Center
09:19PM 34.1997 -116.9039 242° Southwest 445 512 22,300 -2,280 Descending Los Angeles Center
09:20PM 34.1311 -117.0564 242° Southwest 432 497 19,700 -2,400 Descending Los Angeles Center
09:21PM 34.1000 -117.1500 248° West 422 486 18,200 -2,100 Descending Southern California TRACON
09:22PM 34.0500 -117.2667 243° Southwest 395 455 16,100 -2,100 Descending Southern California TRACON
09:23PM 34.0333 -117.4000 261° West 359 413 14,000 -1,800 Descending Southern California TRACON
09:24PM 34.0333 -117.5000 270° West 321 369 12,500 -1,380 Descending Southern California TRACON
09:25PM 34.0333 -117.6167 270° West 300 345 11,300 -1,320 Descending Southern California TRACON
09:26PM 34.0167 -117.7167 259° West 279 321 9,800 -1,380 Descending Southern California TRACON
09:27PM 34.0167 -117.8167 270° West 282 325 8,500 -1,320 Descending Southern California TRACON
09:28PM 34.0000 -117.9000 256° West 278 320 7,300 -1,140 Descending Southern California TRACON
09:29PM 34.0000 -118.0000 270° West 250 288 6,300 -900 Descending Southern California TRACON
09:30PM 33.9833 -118.0500 248° West 217 250 5,500 -900 Descending Southern California TRACON
09:31PM 33.9833 -118.1333 270° West 177 204 4,600 -900 Descending Southern California TRACON
09:32PM 33.9772 -118.1539 250° West 183 211 4,100 -960 Descending Los Angeles Center
09:33PM 33.9725 -118.2069 264° West 165 190 3,200 -840 Descending Los Angeles Center
09:34PM 33.9667 -118.2594 262° West 162 186 2,400 -840 Descending Los Angeles Center
09:35PM 33.9617 -118.3119 263° West 160 184 1,500 -840 Descending Los Angeles Center
09:36PM 33.9575 -118.3617 264° West 156 180 800 -660 Descending Los Angeles Center
09:37PM 33.9522 -118.4072 262° West 147 169 200 -600 Descending Los Angeles Center
09:39PM 33.9425 -118.4081 259° West  Level Estimated
09:46PM 33.9425 -118.4081 259° West  Level Estimated